<?xml version="1.0" encoding="UTF-8" standalone="no" ?>
<gpx xmlns="http://www.topografix.com/GPX/1/1" xmlns:xsi="http://www.w3.org/2001/XMLSchema-instance" xsi:schemaLocation="http://www.topografix.com/GPX/1/1 http://www.topografix.com/GPX/1/1/gpx.xsd" version="1.1" creator="VisuGPX - https://www.visugpx.com">
  <metadata>
    <name>2026-03-09-46-luzech-Mirandol </name>
    <desc><![CDATA[Randonnée de 10,5 km pour environ 200m de dénivelé positif. Deux boucles forment ce circuit partant de l'aire de transhumance des brebis, principalement sur les hauteurs vous apprécierez les vues sur la vallée. gariotte et dolmen seront aussi au rendez vous ]]></desc>
  </metadata>
  <trk>
    <name><![CDATA[Rando Blaireaux Luzech 09-03-2026-23479557]]></name>
    <trkseg>
      <trkpt lat="44.49597" lon="1.27934">
        <ele>267</ele>
        <time>2026-03-05T17:45:48Z</time>
      </trkpt>
      <trkpt lat="44.49577" lon="1.27907">
        <ele>265</ele>
        <time>2026-03-05T17:46:25Z</time>
      </trkpt>
      <trkpt lat="44.49584" lon="1.27893">
        <ele>265</ele>
        <time>2026-03-05T17:46:41Z</time>
      </trkpt>
      <trkpt lat="44.49588" lon="1.27885">
        <ele>264</ele>
        <time>2026-03-05T17:46:51Z</time>
      </trkpt>
      <trkpt lat="44.49632" lon="1.27828">
        <ele>262</ele>
        <time>2026-03-05T17:48:11Z</time>
      </trkpt>
      <trkpt lat="44.49655" lon="1.2777">
        <ele>261</ele>
        <time>2026-03-05T17:49:14Z</time>
      </trkpt>
      <trkpt lat="44.49677" lon="1.27729">
        <ele>262</ele>
        <time>2026-03-05T17:50:03Z</time>
      </trkpt>
      <trkpt lat="44.49727" lon="1.27636">
        <ele>267</ele>
        <time>2026-03-05T17:51:53Z</time>
      </trkpt>
      <trkpt lat="44.49731" lon="1.27632">
        <ele>268</ele>
        <time>2026-03-05T17:52:00Z</time>
      </trkpt>
      <trkpt lat="44.49782" lon="1.27577">
        <ele>272</ele>
        <time>2026-03-05T17:53:26Z</time>
      </trkpt>
      <trkpt lat="44.49818" lon="1.27537">
        <ele>272</ele>
        <time>2026-03-05T17:54:27Z</time>
      </trkpt>
      <trkpt lat="44.49821" lon="1.27532">
        <ele>272</ele>
        <time>2026-03-05T17:54:33Z</time>
      </trkpt>
      <trkpt lat="44.49863" lon="1.2746">
        <ele>268</ele>
        <time>2026-03-05T17:56:02Z</time>
      </trkpt>
      <trkpt lat="44.49865" lon="1.27455">
        <ele>268</ele>
        <time>2026-03-05T17:56:07Z</time>
      </trkpt>
      <trkpt lat="44.49915" lon="1.2733">
        <ele>262</ele>
        <time>2026-03-05T17:58:24Z</time>
      </trkpt>
      <trkpt lat="44.49913" lon="1.27358">
        <ele>264</ele>
        <time>2026-03-05T17:58:51Z</time>
      </trkpt>
      <trkpt lat="44.49916" lon="1.27385">
        <ele>266</ele>
        <time>2026-03-05T17:59:17Z</time>
      </trkpt>
      <trkpt lat="44.49913" lon="1.27358">
        <ele>264</ele>
        <time>2026-03-05T17:59:43Z</time>
      </trkpt>
      <trkpt lat="44.49915" lon="1.2733">
        <ele>262</ele>
        <time>2026-03-05T18:00:09Z</time>
      </trkpt>
      <trkpt lat="44.49917" lon="1.27321">
        <ele>262</ele>
        <time>2026-03-05T18:00:18Z</time>
      </trkpt>
      <trkpt lat="44.49928" lon="1.27269">
        <ele>260</ele>
        <time>2026-03-05T18:01:10Z</time>
      </trkpt>
      <trkpt lat="44.49929" lon="1.27263">
        <ele>259</ele>
        <time>2026-03-05T18:01:16Z</time>
      </trkpt>
      <trkpt lat="44.49932" lon="1.27218">
        <ele>258</ele>
        <time>2026-03-05T18:01:59Z</time>
      </trkpt>
      <trkpt lat="44.49933" lon="1.27212">
        <ele>258</ele>
        <time>2026-03-05T18:02:05Z</time>
      </trkpt>
      <trkpt lat="44.49928" lon="1.27183">
        <ele>256</ele>
        <time>2026-03-05T18:02:33Z</time>
      </trkpt>
      <trkpt lat="44.49919" lon="1.27147">
        <ele>254</ele>
        <time>2026-03-05T18:03:09Z</time>
      </trkpt>
      <trkpt lat="44.4991" lon="1.27114">
        <ele>252</ele>
        <time>2026-03-05T18:03:43Z</time>
      </trkpt>
      <trkpt lat="44.49897" lon="1.27055">
        <ele>250</ele>
        <time>2026-03-05T18:04:42Z</time>
      </trkpt>
      <trkpt lat="44.49892" lon="1.27033">
        <ele>249</ele>
        <time>2026-03-05T18:05:04Z</time>
      </trkpt>
      <trkpt lat="44.49892" lon="1.26971">
        <ele>250</ele>
        <time>2026-03-05T18:06:03Z</time>
      </trkpt>
      <trkpt lat="44.49892" lon="1.26965">
        <ele>250</ele>
        <time>2026-03-05T18:06:09Z</time>
      </trkpt>
      <trkpt lat="44.49892" lon="1.26895">
        <ele>251</ele>
        <time>2026-03-05T18:07:15Z</time>
      </trkpt>
      <trkpt lat="44.49889" lon="1.26844">
        <ele>250</ele>
        <time>2026-03-05T18:08:04Z</time>
      </trkpt>
      <trkpt lat="44.49885" lon="1.26798">
        <ele>248</ele>
        <time>2026-03-05T18:08:48Z</time>
      </trkpt>
      <trkpt lat="44.49885" lon="1.26776">
        <ele>247</ele>
        <time>2026-03-05T18:09:09Z</time>
      </trkpt>
      <trkpt lat="44.49883" lon="1.26751">
        <ele>245</ele>
        <time>2026-03-05T18:09:33Z</time>
      </trkpt>
      <trkpt lat="44.49878" lon="1.2672">
        <ele>244</ele>
        <time>2026-03-05T18:10:03Z</time>
      </trkpt>
      <trkpt lat="44.49872" lon="1.26704">
        <ele>242</ele>
        <time>2026-03-05T18:10:20Z</time>
      </trkpt>
      <trkpt lat="44.49868" lon="1.26691">
        <ele>242</ele>
        <time>2026-03-05T18:10:34Z</time>
      </trkpt>
      <trkpt lat="44.49852" lon="1.2666">
        <ele>239</ele>
        <time>2026-03-05T18:11:10Z</time>
      </trkpt>
      <trkpt lat="44.4984" lon="1.26592">
        <ele>236</ele>
        <time>2026-03-05T18:12:17Z</time>
      </trkpt>
      <trkpt lat="44.49829" lon="1.26557">
        <ele>234</ele>
        <time>2026-03-05T18:12:53Z</time>
      </trkpt>
      <trkpt lat="44.49807" lon="1.2649">
        <ele>232</ele>
        <time>2026-03-05T18:14:03Z</time>
      </trkpt>
      <trkpt lat="44.49805" lon="1.26483">
        <ele>232</ele>
        <time>2026-03-05T18:14:11Z</time>
      </trkpt>
      <trkpt lat="44.498" lon="1.26461">
        <ele>232</ele>
        <time>2026-03-05T18:14:33Z</time>
      </trkpt>
      <trkpt lat="44.498" lon="1.26405">
        <ele>234</ele>
        <time>2026-03-05T18:15:26Z</time>
      </trkpt>
      <trkpt lat="44.498" lon="1.26387">
        <ele>235</ele>
        <time>2026-03-05T18:15:43Z</time>
      </trkpt>
      <trkpt lat="44.49798" lon="1.26365">
        <ele>236</ele>
        <time>2026-03-05T18:16:04Z</time>
      </trkpt>
      <trkpt lat="44.49792" lon="1.26348">
        <ele>237</ele>
        <time>2026-03-05T18:16:22Z</time>
      </trkpt>
      <trkpt lat="44.49787" lon="1.26335">
        <ele>237</ele>
        <time>2026-03-05T18:16:36Z</time>
      </trkpt>
      <trkpt lat="44.49769" lon="1.2631">
        <ele>236</ele>
        <time>2026-03-05T18:17:10Z</time>
      </trkpt>
      <trkpt lat="44.49759" lon="1.26291">
        <ele>235</ele>
        <time>2026-03-05T18:17:33Z</time>
      </trkpt>
      <trkpt lat="44.49772" lon="1.26282">
        <ele>236</ele>
        <time>2026-03-05T18:17:52Z</time>
      </trkpt>
      <trkpt lat="44.49759" lon="1.26291">
        <ele>235</ele>
        <time>2026-03-05T18:18:11Z</time>
      </trkpt>
      <trkpt lat="44.49747" lon="1.26244">
        <ele>235</ele>
        <time>2026-03-05T18:18:59Z</time>
      </trkpt>
      <trkpt lat="44.49723" lon="1.26147">
        <ele>236</ele>
        <time>2026-03-05T18:20:37Z</time>
      </trkpt>
      <trkpt lat="44.49716" lon="1.26077">
        <ele>235</ele>
        <time>2026-03-05T18:21:44Z</time>
      </trkpt>
      <trkpt lat="44.49725" lon="1.26051">
        <ele>236</ele>
        <time>2026-03-05T18:22:11Z</time>
      </trkpt>
      <trkpt lat="44.49745" lon="1.25995">
        <ele>237</ele>
        <time>2026-03-05T18:23:11Z</time>
      </trkpt>
      <trkpt lat="44.49752" lon="1.25946">
        <ele>240</ele>
        <time>2026-03-05T18:23:58Z</time>
      </trkpt>
      <trkpt lat="44.49759" lon="1.25902">
        <ele>242</ele>
        <time>2026-03-05T18:24:41Z</time>
      </trkpt>
      <trkpt lat="44.49756" lon="1.25892">
        <ele>242</ele>
        <time>2026-03-05T18:24:52Z</time>
      </trkpt>
      <trkpt lat="44.49757" lon="1.2588">
        <ele>242</ele>
        <time>2026-03-05T18:25:03Z</time>
      </trkpt>
      <trkpt lat="44.49758" lon="1.25859">
        <ele>243</ele>
        <time>2026-03-05T18:25:23Z</time>
      </trkpt>
      <trkpt lat="44.49757" lon="1.25848">
        <ele>243</ele>
        <time>2026-03-05T18:25:34Z</time>
      </trkpt>
      <trkpt lat="44.49751" lon="1.258">
        <ele>243</ele>
        <time>2026-03-05T18:26:20Z</time>
      </trkpt>
      <trkpt lat="44.49748" lon="1.25777">
        <ele>243</ele>
        <time>2026-03-05T18:26:42Z</time>
      </trkpt>
      <trkpt lat="44.49745" lon="1.25772">
        <ele>243</ele>
        <time>2026-03-05T18:26:49Z</time>
      </trkpt>
      <trkpt lat="44.49754" lon="1.25746">
        <ele>242</ele>
        <time>2026-03-05T18:27:16Z</time>
      </trkpt>
      <trkpt lat="44.4977" lon="1.25709">
        <ele>240</ele>
        <time>2026-03-05T18:27:57Z</time>
      </trkpt>
      <trkpt lat="44.498" lon="1.25645">
        <ele>239</ele>
        <time>2026-03-05T18:29:10Z</time>
      </trkpt>
      <trkpt lat="44.49813" lon="1.25622">
        <ele>238</ele>
        <time>2026-03-05T18:29:38Z</time>
      </trkpt>
      <trkpt lat="44.49831" lon="1.25592">
        <ele>237</ele>
        <time>2026-03-05T18:30:16Z</time>
      </trkpt>
      <trkpt lat="44.49836" lon="1.25578">
        <ele>236</ele>
        <time>2026-03-05T18:30:30Z</time>
      </trkpt>
      <trkpt lat="44.49838" lon="1.25569">
        <ele>235</ele>
        <time>2026-03-05T18:30:39Z</time>
      </trkpt>
      <trkpt lat="44.49838" lon="1.25561">
        <ele>234</ele>
        <time>2026-03-05T18:30:47Z</time>
      </trkpt>
      <trkpt lat="44.49834" lon="1.25555">
        <ele>234</ele>
        <time>2026-03-05T18:30:55Z</time>
      </trkpt>
      <trkpt lat="44.4982" lon="1.25544">
        <ele>232</ele>
        <time>2026-03-05T18:31:16Z</time>
      </trkpt>
      <trkpt lat="44.49829" lon="1.25539">
        <ele>232</ele>
        <time>2026-03-05T18:31:29Z</time>
      </trkpt>
      <trkpt lat="44.4982" lon="1.25544">
        <ele>232</ele>
        <time>2026-03-05T18:31:42Z</time>
      </trkpt>
      <trkpt lat="44.49806" lon="1.25532">
        <ele>231</ele>
        <time>2026-03-05T18:32:04Z</time>
      </trkpt>
      <trkpt lat="44.49803" lon="1.25525">
        <ele>230</ele>
        <time>2026-03-05T18:32:12Z</time>
      </trkpt>
      <trkpt lat="44.4979" lon="1.25494">
        <ele>227</ele>
        <time>2026-03-05T18:32:46Z</time>
      </trkpt>
      <trkpt lat="44.49786" lon="1.25483">
        <ele>227</ele>
        <time>2026-03-05T18:32:58Z</time>
      </trkpt>
      <trkpt lat="44.49767" lon="1.25428">
        <ele>225</ele>
        <time>2026-03-05T18:33:56Z</time>
      </trkpt>
      <trkpt lat="44.49756" lon="1.25397">
        <ele>227</ele>
        <time>2026-03-05T18:34:29Z</time>
      </trkpt>
      <trkpt lat="44.49754" lon="1.25384">
        <ele>229</ele>
        <time>2026-03-05T18:34:42Z</time>
      </trkpt>
      <trkpt lat="44.49754" lon="1.25376">
        <ele>230</ele>
        <time>2026-03-05T18:34:49Z</time>
      </trkpt>
      <trkpt lat="44.4975" lon="1.25293">
        <ele>236</ele>
        <time>2026-03-05T18:36:08Z</time>
      </trkpt>
      <trkpt lat="44.49749" lon="1.25279">
        <ele>237</ele>
        <time>2026-03-05T18:36:22Z</time>
      </trkpt>
      <trkpt lat="44.49725" lon="1.25169">
        <ele>242</ele>
        <time>2026-03-05T18:38:11Z</time>
      </trkpt>
      <trkpt lat="44.49722" lon="1.25156">
        <ele>241</ele>
        <time>2026-03-05T18:38:24Z</time>
      </trkpt>
      <trkpt lat="44.49713" lon="1.2517">
        <ele>242</ele>
        <time>2026-03-05T18:38:42Z</time>
      </trkpt>
      <trkpt lat="44.49695" lon="1.2518">
        <ele>243</ele>
        <time>2026-03-05T18:39:08Z</time>
      </trkpt>
      <trkpt lat="44.49649" lon="1.25206">
        <ele>247</ele>
        <time>2026-03-05T18:40:14Z</time>
      </trkpt>
      <trkpt lat="44.49638" lon="1.25215">
        <ele>248</ele>
        <time>2026-03-05T18:40:31Z</time>
      </trkpt>
      <trkpt lat="44.49596" lon="1.25248">
        <ele>253</ele>
        <time>2026-03-05T18:41:35Z</time>
      </trkpt>
      <trkpt lat="44.49573" lon="1.25272">
        <ele>254</ele>
        <time>2026-03-05T18:42:14Z</time>
      </trkpt>
      <trkpt lat="44.49555" lon="1.25292">
        <ele>255</ele>
        <time>2026-03-05T18:42:44Z</time>
      </trkpt>
      <trkpt lat="44.49524" lon="1.25328">
        <ele>257</ele>
        <time>2026-03-05T18:43:38Z</time>
      </trkpt>
      <trkpt lat="44.49496" lon="1.25359">
        <ele>258</ele>
        <time>2026-03-05T18:44:26Z</time>
      </trkpt>
      <trkpt lat="44.49462" lon="1.25396">
        <ele>256</ele>
        <time>2026-03-05T18:45:23Z</time>
      </trkpt>
      <trkpt lat="44.49444" lon="1.25415">
        <ele>256</ele>
        <time>2026-03-05T18:45:53Z</time>
      </trkpt>
      <trkpt lat="44.49438" lon="1.25422">
        <ele>256</ele>
        <time>2026-03-05T18:46:04Z</time>
      </trkpt>
      <trkpt lat="44.49424" lon="1.25443">
        <ele>255</ele>
        <time>2026-03-05T18:46:31Z</time>
      </trkpt>
      <trkpt lat="44.49379" lon="1.2541">
        <ele>248</ele>
        <time>2026-03-05T18:47:39Z</time>
      </trkpt>
      <trkpt lat="44.49357" lon="1.25381">
        <ele>242</ele>
        <time>2026-03-05T18:48:19Z</time>
      </trkpt>
      <trkpt lat="44.49323" lon="1.25358">
        <ele>237</ele>
        <time>2026-03-05T18:49:09Z</time>
      </trkpt>
      <trkpt lat="44.49301" lon="1.25323">
        <ele>237</ele>
        <time>2026-03-05T18:49:54Z</time>
      </trkpt>
      <trkpt lat="44.4928" lon="1.253">
        <ele>236</ele>
        <time>2026-03-05T18:50:29Z</time>
      </trkpt>
      <trkpt lat="44.49237" lon="1.25321">
        <ele>237</ele>
        <time>2026-03-05T18:51:30Z</time>
      </trkpt>
      <trkpt lat="44.49214" lon="1.25356">
        <ele>237</ele>
        <time>2026-03-05T18:52:15Z</time>
      </trkpt>
      <trkpt lat="44.49199" lon="1.25396">
        <ele>238</ele>
        <time>2026-03-05T18:52:58Z</time>
      </trkpt>
      <trkpt lat="44.49175" lon="1.25437">
        <ele>239</ele>
        <time>2026-03-05T18:53:49Z</time>
      </trkpt>
      <trkpt lat="44.49157" lon="1.25396">
        <ele>237</ele>
        <time>2026-03-05T18:54:35Z</time>
      </trkpt>
      <trkpt lat="44.49107" lon="1.25333">
        <ele>234</ele>
        <time>2026-03-05T18:56:04Z</time>
      </trkpt>
      <trkpt lat="44.49094" lon="1.25317">
        <ele>234</ele>
        <time>2026-03-05T18:56:28Z</time>
      </trkpt>
      <trkpt lat="44.49058" lon="1.25242">
        <ele>231</ele>
        <time>2026-03-05T18:57:54Z</time>
      </trkpt>
      <trkpt lat="44.49024" lon="1.25186">
        <ele>232</ele>
        <time>2026-03-05T18:59:04Z</time>
      </trkpt>
      <trkpt lat="44.49002" lon="1.25149">
        <ele>235</ele>
        <time>2026-03-05T18:59:49Z</time>
      </trkpt>
      <trkpt lat="44.48967" lon="1.25076">
        <ele>232</ele>
        <time>2026-03-05T19:01:13Z</time>
      </trkpt>
      <trkpt lat="44.48937" lon="1.25018">
        <ele>226</ele>
        <time>2026-03-05T19:02:21Z</time>
      </trkpt>
      <trkpt lat="44.48899" lon="1.24989">
        <ele>217</ele>
        <time>2026-03-05T19:03:19Z</time>
      </trkpt>
      <trkpt lat="44.48863" lon="1.24935">
        <ele>213</ele>
        <time>2026-03-05T19:04:29Z</time>
      </trkpt>
      <trkpt lat="44.48832" lon="1.24894">
        <ele>213</ele>
        <time>2026-03-05T19:05:26Z</time>
      </trkpt>
      <trkpt lat="44.48805" lon="1.24826">
        <ele>218</ele>
        <time>2026-03-05T19:06:40Z</time>
      </trkpt>
      <trkpt lat="44.48788" lon="1.24801">
        <ele>221</ele>
        <time>2026-03-05T19:07:13Z</time>
      </trkpt>
      <trkpt lat="44.48766" lon="1.24738">
        <ele>231</ele>
        <time>2026-03-05T19:08:20Z</time>
      </trkpt>
      <trkpt lat="44.48726" lon="1.24695">
        <ele>227</ele>
        <time>2026-03-05T19:09:27Z</time>
      </trkpt>
      <trkpt lat="44.48683" lon="1.2466">
        <ele>225</ele>
        <time>2026-03-05T19:10:34Z</time>
      </trkpt>
      <trkpt lat="44.48638" lon="1.24622">
        <ele>218</ele>
        <time>2026-03-05T19:11:44Z</time>
      </trkpt>
      <trkpt lat="44.4859" lon="1.24602">
        <ele>212</ele>
        <time>2026-03-05T19:12:51Z</time>
      </trkpt>
      <trkpt lat="44.48516" lon="1.2456">
        <ele>193</ele>
        <time>2026-03-05T19:14:37Z</time>
      </trkpt>
      <trkpt lat="44.48473" lon="1.24552">
        <ele>181</ele>
        <time>2026-03-05T19:15:35Z</time>
      </trkpt>
      <trkpt lat="44.48443" lon="1.24533">
        <ele>177</ele>
        <time>2026-03-05T19:16:19Z</time>
      </trkpt>
      <trkpt lat="44.48383" lon="1.24525">
        <ele>168</ele>
        <time>2026-03-05T19:17:39Z</time>
      </trkpt>
      <trkpt lat="44.48349" lon="1.24504">
        <ele>172</ele>
        <time>2026-03-05T19:18:29Z</time>
      </trkpt>
      <trkpt lat="44.48309" lon="1.24481">
        <ele>169</ele>
        <time>2026-03-05T19:19:27Z</time>
      </trkpt>
      <trkpt lat="44.48261" lon="1.24461">
        <ele>167</ele>
        <time>2026-03-05T19:20:34Z</time>
      </trkpt>
      <trkpt lat="44.48218" lon="1.24432">
        <ele>171</ele>
        <time>2026-03-05T19:21:37Z</time>
      </trkpt>
      <trkpt lat="44.48177" lon="1.24409">
        <ele>174</ele>
        <time>2026-03-05T19:22:36Z</time>
      </trkpt>
      <trkpt lat="44.48121" lon="1.24384">
        <ele>166</ele>
        <time>2026-03-05T19:23:55Z</time>
      </trkpt>
      <trkpt lat="44.48062" lon="1.24357">
        <ele>162</ele>
        <time>2026-03-05T19:25:17Z</time>
      </trkpt>
      <trkpt lat="44.48001" lon="1.24347">
        <ele>153</ele>
        <time>2026-03-05T19:26:39Z</time>
      </trkpt>
      <trkpt lat="44.47955" lon="1.24357">
        <ele>141</ele>
        <time>2026-03-05T19:27:41Z</time>
      </trkpt>
      <trkpt lat="44.47898" lon="1.24359">
        <ele>132</ele>
        <time>2026-03-05T19:28:58Z</time>
      </trkpt>
      <trkpt lat="44.47869" lon="1.24326">
        <ele>135</ele>
        <time>2026-03-05T19:29:47Z</time>
      </trkpt>
      <trkpt lat="44.47868" lon="1.2428">
        <ele>136</ele>
        <time>2026-03-05T19:30:31Z</time>
      </trkpt>
      <trkpt lat="44.47886" lon="1.24231">
        <ele>135</ele>
        <time>2026-03-05T19:31:24Z</time>
      </trkpt>
      <trkpt lat="44.47902" lon="1.24198">
        <ele>133</ele>
        <time>2026-03-05T19:32:02Z</time>
      </trkpt>
      <trkpt lat="44.47923" lon="1.24164">
        <ele>133</ele>
        <time>2026-03-05T19:32:45Z</time>
      </trkpt>
      <trkpt lat="44.47939" lon="1.24108">
        <ele>130</ele>
        <time>2026-03-05T19:33:42Z</time>
      </trkpt>
      <trkpt lat="44.47906" lon="1.2404">
        <ele>125</ele>
        <time>2026-03-05T19:35:00Z</time>
      </trkpt>
      <trkpt lat="44.47964" lon="1.24013">
        <ele>128</ele>
        <time>2026-03-05T19:36:22Z</time>
      </trkpt>
      <trkpt lat="44.48008" lon="1.23967">
        <ele>129</ele>
        <time>2026-03-05T19:37:35Z</time>
      </trkpt>
      <trkpt lat="44.48056" lon="1.23938">
        <ele>130</ele>
        <time>2026-03-05T19:38:45Z</time>
      </trkpt>
      <trkpt lat="44.48108" lon="1.2393">
        <ele>130</ele>
        <time>2026-03-05T19:39:55Z</time>
      </trkpt>
      <trkpt lat="44.48152" lon="1.23972">
        <ele>133</ele>
        <time>2026-03-05T19:41:06Z</time>
      </trkpt>
      <trkpt lat="44.4819" lon="1.24005">
        <ele>133</ele>
        <time>2026-03-05T19:42:05Z</time>
      </trkpt>
      <trkpt lat="44.48248" lon="1.24032">
        <ele>130</ele>
        <time>2026-03-05T19:43:27Z</time>
      </trkpt>
      <trkpt lat="44.48315" lon="1.24052">
        <ele>132</ele>
        <time>2026-03-05T19:44:58Z</time>
      </trkpt>
      <trkpt lat="44.48357" lon="1.24069">
        <ele>133</ele>
        <time>2026-03-05T19:45:57Z</time>
      </trkpt>
      <trkpt lat="44.48374" lon="1.24013">
        <ele>135</ele>
        <time>2026-03-05T19:46:55Z</time>
      </trkpt>
      <trkpt lat="44.48436" lon="1.2403">
        <ele>140</ele>
        <time>2026-03-05T19:48:19Z</time>
      </trkpt>
      <trkpt lat="44.48496" lon="1.24067">
        <ele>138</ele>
        <time>2026-03-05T19:49:46Z</time>
      </trkpt>
      <trkpt lat="44.48553" lon="1.24079">
        <ele>137</ele>
        <time>2026-03-05T19:51:03Z</time>
      </trkpt>
      <trkpt lat="44.48622" lon="1.24061">
        <ele>143</ele>
        <time>2026-03-05T19:52:37Z</time>
      </trkpt>
      <trkpt lat="44.48675" lon="1.2405">
        <ele>148</ele>
        <time>2026-03-05T19:53:48Z</time>
      </trkpt>
      <trkpt lat="44.4874" lon="1.24048">
        <ele>154</ele>
        <time>2026-03-05T19:55:15Z</time>
      </trkpt>
      <trkpt lat="44.48792" lon="1.24075">
        <ele>154</ele>
        <time>2026-03-05T19:56:29Z</time>
      </trkpt>
      <trkpt lat="44.48829" lon="1.24115">
        <ele>153</ele>
        <time>2026-03-05T19:57:32Z</time>
      </trkpt>
      <trkpt lat="44.48875" lon="1.24125">
        <ele>154</ele>
        <time>2026-03-05T19:58:34Z</time>
      </trkpt>
      <trkpt lat="44.48908" lon="1.2416">
        <ele>154</ele>
        <time>2026-03-05T19:59:29Z</time>
      </trkpt>
      <trkpt lat="44.48927" lon="1.242">
        <ele>158</ele>
        <time>2026-03-05T20:00:15Z</time>
      </trkpt>
      <trkpt lat="44.48973" lon="1.24239">
        <ele>164</ele>
        <time>2026-03-05T20:01:26Z</time>
      </trkpt>
      <trkpt lat="44.49014" lon="1.24282">
        <ele>170</ele>
        <time>2026-03-05T20:02:35Z</time>
      </trkpt>
      <trkpt lat="44.49041" lon="1.24334">
        <ele>176</ele>
        <time>2026-03-05T20:03:36Z</time>
      </trkpt>
      <trkpt lat="44.49036" lon="1.24392">
        <ele>180</ele>
        <time>2026-03-05T20:04:32Z</time>
      </trkpt>
      <trkpt lat="44.49036" lon="1.24479">
        <ele>186</ele>
        <time>2026-03-05T20:05:54Z</time>
      </trkpt>
      <trkpt lat="44.49024" lon="1.24554">
        <ele>192</ele>
        <time>2026-03-05T20:07:08Z</time>
      </trkpt>
      <trkpt lat="44.48999" lon="1.24618">
        <ele>196</ele>
        <time>2026-03-05T20:08:17Z</time>
      </trkpt>
      <trkpt lat="44.48976" lon="1.2467">
        <ele>204</ele>
        <time>2026-03-05T20:09:15Z</time>
      </trkpt>
      <trkpt lat="44.48944" lon="1.24712">
        <ele>208</ele>
        <time>2026-03-05T20:10:14Z</time>
      </trkpt>
      <trkpt lat="44.48922" lon="1.24772">
        <ele>210</ele>
        <time>2026-03-05T20:11:18Z</time>
      </trkpt>
      <trkpt lat="44.48916" lon="1.24842">
        <ele>214</ele>
        <time>2026-03-05T20:12:25Z</time>
      </trkpt>
      <trkpt lat="44.48903" lon="1.24902">
        <ele>218</ele>
        <time>2026-03-05T20:13:25Z</time>
      </trkpt>
      <trkpt lat="44.489" lon="1.24966">
        <ele>218</ele>
        <time>2026-03-05T20:14:26Z</time>
      </trkpt>
      <trkpt lat="44.48958" lon="1.25058">
        <ele>230</ele>
        <time>2026-03-05T20:16:23Z</time>
      </trkpt>
      <trkpt lat="44.48986" lon="1.25122">
        <ele>233</ele>
        <time>2026-03-05T20:17:34Z</time>
      </trkpt>
      <trkpt lat="44.49042" lon="1.25207">
        <ele>231</ele>
        <time>2026-03-05T20:19:24Z</time>
      </trkpt>
      <trkpt lat="44.4907" lon="1.25275">
        <ele>232</ele>
        <time>2026-03-05T20:20:39Z</time>
      </trkpt>
      <trkpt lat="44.49119" lon="1.25354">
        <ele>234</ele>
        <time>2026-03-05T20:22:19Z</time>
      </trkpt>
      <trkpt lat="44.49162" lon="1.25429">
        <ele>239</ele>
        <time>2026-03-05T20:23:50Z</time>
      </trkpt>
      <trkpt lat="44.49172" lon="1.25485">
        <ele>239</ele>
        <time>2026-03-05T20:24:45Z</time>
      </trkpt>
      <trkpt lat="44.49177" lon="1.25539">
        <ele>238</ele>
        <time>2026-03-05T20:25:37Z</time>
      </trkpt>
      <trkpt lat="44.49178" lon="1.25605">
        <ele>239</ele>
        <time>2026-03-05T20:26:40Z</time>
      </trkpt>
      <trkpt lat="44.49193" lon="1.2563">
        <ele>240</ele>
        <time>2026-03-05T20:27:11Z</time>
      </trkpt>
      <trkpt lat="44.49219" lon="1.25667">
        <ele>245</ele>
        <time>2026-03-05T20:28:01Z</time>
      </trkpt>
      <trkpt lat="44.49248" lon="1.25723">
        <ele>248</ele>
        <time>2026-03-05T20:29:06Z</time>
      </trkpt>
      <trkpt lat="44.49271" lon="1.25769">
        <ele>249</ele>
        <time>2026-03-05T20:30:00Z</time>
      </trkpt>
      <trkpt lat="44.49276" lon="1.25843">
        <ele>250</ele>
        <time>2026-03-05T20:31:11Z</time>
      </trkpt>
      <trkpt lat="44.49313" lon="1.25895">
        <ele>253</ele>
        <time>2026-03-05T20:32:21Z</time>
      </trkpt>
      <trkpt lat="44.49361" lon="1.25949">
        <ele>257</ele>
        <time>2026-03-05T20:33:43Z</time>
      </trkpt>
      <trkpt lat="44.49373" lon="1.25997">
        <ele>260</ele>
        <time>2026-03-05T20:34:31Z</time>
      </trkpt>
      <trkpt lat="44.494" lon="1.26048">
        <ele>262</ele>
        <time>2026-03-05T20:35:32Z</time>
      </trkpt>
      <trkpt lat="44.49431" lon="1.26019">
        <ele>263</ele>
        <time>2026-03-05T20:36:21Z</time>
      </trkpt>
      <trkpt lat="44.4946" lon="1.25984">
        <ele>264</ele>
        <time>2026-03-05T20:37:12Z</time>
      </trkpt>
      <trkpt lat="44.49518" lon="1.25955">
        <ele>263</ele>
        <time>2026-03-05T20:38:35Z</time>
      </trkpt>
      <trkpt lat="44.49546" lon="1.25966">
        <ele>264</ele>
        <time>2026-03-05T20:39:13Z</time>
      </trkpt>
      <trkpt lat="44.49574" lon="1.25926">
        <ele>261</ele>
        <time>2026-03-05T20:40:07Z</time>
      </trkpt>
      <trkpt lat="44.49617" lon="1.25949">
        <ele>258</ele>
        <time>2026-03-05T20:41:08Z</time>
      </trkpt>
      <trkpt lat="44.4962" lon="1.25988">
        <ele>258</ele>
        <time>2026-03-05T20:41:45Z</time>
      </trkpt>
      <trkpt lat="44.49616" lon="1.26059">
        <ele>258</ele>
        <time>2026-03-05T20:42:53Z</time>
      </trkpt>
      <trkpt lat="44.49632" lon="1.26129">
        <ele>254</ele>
        <time>2026-03-05T20:44:03Z</time>
      </trkpt>
      <trkpt lat="44.49635" lon="1.26198">
        <ele>251</ele>
        <time>2026-03-05T20:45:09Z</time>
      </trkpt>
      <trkpt lat="44.49647" lon="1.26249">
        <ele>246</ele>
        <time>2026-03-05T20:46:00Z</time>
      </trkpt>
      <trkpt lat="44.4966" lon="1.26297">
        <ele>238</ele>
        <time>2026-03-05T20:46:49Z</time>
      </trkpt>
      <trkpt lat="44.49676" lon="1.26324">
        <ele>234</ele>
        <time>2026-03-05T20:47:22Z</time>
      </trkpt>
      <trkpt lat="44.49715" lon="1.26324">
        <ele>235</ele>
        <time>2026-03-05T20:48:14Z</time>
      </trkpt>
      <trkpt lat="44.4974" lon="1.2631">
        <ele>235</ele>
        <time>2026-03-05T20:48:50Z</time>
      </trkpt>
      <trkpt lat="44.49781" lon="1.2632">
        <ele>237</ele>
        <time>2026-03-05T20:49:46Z</time>
      </trkpt>
      <trkpt lat="44.49796" lon="1.26374">
        <ele>236</ele>
        <time>2026-03-05T20:50:41Z</time>
      </trkpt>
      <trkpt lat="44.49801" lon="1.26455">
        <ele>232</ele>
        <time>2026-03-05T20:51:58Z</time>
      </trkpt>
      <trkpt lat="44.49821" lon="1.26531">
        <ele>233</ele>
        <time>2026-03-05T20:53:16Z</time>
      </trkpt>
      <trkpt lat="44.49855" lon="1.26629">
        <ele>238</ele>
        <time>2026-03-05T20:54:59Z</time>
      </trkpt>
      <trkpt lat="44.49869" lon="1.26689">
        <ele>241</ele>
        <time>2026-03-05T20:55:59Z</time>
      </trkpt>
      <trkpt lat="44.49883" lon="1.26743">
        <ele>245</ele>
        <time>2026-03-05T20:56:54Z</time>
      </trkpt>
      <trkpt lat="44.49885" lon="1.26826">
        <ele>250</ele>
        <time>2026-03-05T20:58:13Z</time>
      </trkpt>
      <trkpt lat="44.49889" lon="1.26902">
        <ele>251</ele>
        <time>2026-03-05T20:59:26Z</time>
      </trkpt>
      <trkpt lat="44.49891" lon="1.27018">
        <ele>249</ele>
        <time>2026-03-05T21:01:16Z</time>
      </trkpt>
      <trkpt lat="44.49905" lon="1.27087">
        <ele>251</ele>
        <time>2026-03-05T21:02:24Z</time>
      </trkpt>
      <trkpt lat="44.49926" lon="1.2717">
        <ele>256</ele>
        <time>2026-03-05T21:03:48Z</time>
      </trkpt>
      <trkpt lat="44.49925" lon="1.27315">
        <ele>261</ele>
        <time>2026-03-05T21:06:06Z</time>
      </trkpt>
      <trkpt lat="44.499" lon="1.27383">
        <ele>265</ele>
        <time>2026-03-05T21:07:19Z</time>
      </trkpt>
      <trkpt lat="44.49854" lon="1.27489">
        <ele>270</ele>
        <time>2026-03-05T21:09:17Z</time>
      </trkpt>
      <trkpt lat="44.49818" lon="1.27557">
        <ele>273</ele>
        <time>2026-03-05T21:10:38Z</time>
      </trkpt>
      <trkpt lat="44.49762" lon="1.27619">
        <ele>270</ele>
        <time>2026-03-05T21:12:13Z</time>
      </trkpt>
      <trkpt lat="44.49721" lon="1.27686">
        <ele>266</ele>
        <time>2026-03-05T21:13:37Z</time>
      </trkpt>
      <trkpt lat="44.4969" lon="1.27756">
        <ele>263</ele>
        <time>2026-03-05T21:14:55Z</time>
      </trkpt>
      <trkpt lat="44.49663" lon="1.27787">
        <ele>262</ele>
        <time>2026-03-05T21:15:42Z</time>
      </trkpt>
      <trkpt lat="44.49611" lon="1.2787">
        <ele>264</ele>
        <time>2026-03-05T21:17:27Z</time>
      </trkpt>
      <trkpt lat="44.49597" lon="1.2792">
        <ele>266</ele>
        <time>2026-03-05T21:18:18Z</time>
      </trkpt>
    </trkseg>
  </trk>
</gpx>